RJAAEDDM

Guest
Details From RJAA - Narita Intl
To EDDM - Muenchen Franz-josef Strauss
Flight Number -
Tags Generated
Created
Modified
Stats Distance 5,059 nm / 9,369 km
Max Altitude 0 ft / 0 m
Waypoints 9
Social Downloads 1
Likes 0
Share VATSIM

Download

Looking for another format? Having issues loading an existing format? Contact us
Advertisement - Login to hide

Notes

Generated

Route

RJAA LIKDI OGERI MASUL ULAN SMILA UVSOV R2131 EDDM

ID Type Via Altitude Latitude Longitude Leg Dist Tot Dist Heading (true) Name
O RJAA APT - 0 ft / 0 m 35.80271˚ 140.37991˚ - 0 nm - -
LIKDI FIX - 0 ft / 0 m 57.86667˚ 111.36667˚ 1755 nm 1755 nm 328° / 306° -
OGERI FIX - 0 ft / 0 m 59.98333˚ 105.38333˚ 224 nm 1980 nm 307° / 302° -
MASUL FIX - 0 ft / 0 m 64.91667˚ 66.66667˚ 1096 nm 3076 nm 302° / 268° -
ULAN FIX - 0 ft / 0 m 62.11667˚ 42.90000˚ 654 nm 3730 nm 266° / 245° -
SMILA FIX - 0 ft / 0 m 56.17000˚ 24.70944˚ 661 nm 4391 nm 246° / 230° -
UVSOV FIX - 0 ft / 0 m 50.95306˚ 15.29333˚ 458 nm 4850 nm 231° / 223° -
R2131 FIX - 0 ft / 0 m 48.34067˚ 11.75102˚ 208 nm 5058 nm 223° / 220° -
O EDDM APT - 0 ft / 0 m 48.34069˚ 11.75108˚ 0 nm 5058 nm 65° / 65° -

Altitude Profile

Advertisement - Login to hide

Weather


0- 5 10 15 20 25 30 35+ Temperature / ° C

Clouds and Precipitation
Forecast for 2017-12-14 06:00 UTC. Updated an hour ago

Ground ~20,000 ft ~40,000 ft Winds

RJAA

Details ICAO RJAA (NRT)
Name NARITA INTL
Region Japan
Timezone Asia/Tokyo (UTC+9.0)
Stats Elevation 141 ft / 43 m (AMSL)
Location 35.776552° 140.382770°
Runways 2
Magnetic Variation 7.405° W

METAR

RJAA 140600Z 33005KT 300V010 9999 FEW030 09/M06 Q1021 NOSIG

Decode

TAF

TAF RJAA 140507Z 1406/1512 34006KT 9999 FEW030= TAF RJBB 140510Z 1406/1512 35014KT 9999 FEW020 SCT040 BECMG 1418/1421 07006KT

Decode

Departure Runways

ID Width Length Bearing (true) Bearing (mag) Surface Threshold Offset Overrun Length
16L 196 ft / 60 m 7,162 ft / 2,183 m 149.61° 157.02° Asphalt 190 ft / 58 m 0 ft / 0 m
16R 196 ft / 60 m 13,142 ft / 4,006 m 149.61° 157.02° Asphalt 0 ft / 0 m 410 ft / 125 m
34L 196 ft / 60 m 13,142 ft / 4,006 m 329.62° 337.03° Asphalt 0 ft / 0 m 415 ft / 126 m
34R 196 ft / 60 m 7,162 ft / 2,183 m 329.62° 337.03° Asphalt 190 ft / 58 m 0 ft / 0 m

EDDM

Details ICAO EDDM (MUC)
Name Muenchen Franz-Josef Strauss
Region Germany - Civil
Timezone Europe/Berlin (UTC+1.0)
Stats Elevation 1,487 ft / 453 m (AMSL)
Location 48.353786° 11.786117°
Runways 2
Magnetic Variation 3.161° E

METAR

EDDM 140550Z 25018KT 9999 FEW030 BKN034TCU BKN100 07/02 Q0997 TEMPO SHRA

Decode

TAF

TAF EDDM 140500Z 1406/1512 25020G35KT 9999 SCT020 BKN040 TEMPO 1406/1410 26030G45KT 4000 SHRA BKN020TCU PROB30 TEMPO 1407/1409 TSGS BKN014CB BECMG 1416/1418 22010KT TEMPO 1421/1507 4000 RASN BKN008

Decode

Destination Runways

ID Width Length Bearing (true) Bearing (mag) Surface Threshold Offset Overrun Length
08L 197 ft / 60 m 13,086 ft / 3,989 m 83.38° 80.22° Concrete 0 ft / 0 m 0 ft / 0 m
08R 197 ft / 60 m 13,086 ft / 3,989 m 83.37° 80.21° Concrete 0 ft / 0 m 0 ft / 0 m
26L 197 ft / 60 m 13,086 ft / 3,989 m 263.41° 260.25° Concrete 0 ft / 0 m 0 ft / 0 m
26R 197 ft / 60 m 13,086 ft / 3,989 m 263.42° 260.26° Concrete 0 ft / 0 m 0 ft / 0 m

Approach Navaids

Runway Type Ident Frequency Range Bearing (true) Bearing (mag) Slope Elevation
08L Localiser IMNE 109.50 MHz 18 nm / 33 km 83.42° 80.26° - 1,449 ft / 442 m (AMSL)
08L Glidescope IMNE 109.50 MHz 15 nm / 28 km 83.40° 80.24° 3.00° 1,487 ft / 453 m (AMSL)
08R Localiser IMSE 109.30 MHz 18 nm / 33 km 83.43° 80.27° - 1,470 ft / 448 m (AMSL)
08R Glidescope IMSE 109.30 MHz 10 nm / 19 km 83.39° 80.23° 3.00° 1,487 ft / 453 m (AMSL)
26L Localiser IMSW 108.30 MHz 18 nm / 33 km 263.35° 260.19° - 1,486 ft / 453 m (AMSL)
26L Glidescope IMSW 108.30 MHz 10 nm / 19 km 263.39° 260.23° 3.00° 1,487 ft / 453 m (AMSL)
26R Localiser IMNW 108.70 MHz 18 nm / 33 km 263.38° 260.22° - 1,467 ft / 447 m (AMSL)
26R Glidescope IMNW 108.70 MHz 15 nm / 28 km 263.40° 260.24° 3.00° 1,487 ft / 453 m (AMSL)

Popular Alternatives